OERR

Details ICAO OERR (RAE)
Name ARAR
Region Saudi Arabia
Timezone Asia/Riyadh (UTC+3.0)
Plans Departing 12
Arriving 12
Stats Elevation 1,813 ft / 553 m (AMSL)
Location 30.906644° 41.138235°
Runways 1
Magnetic Variation 4.411° E
Sunrise 2017-12-13 04:05:59 UTC / 2017-12-13 07:05:59 Local
Sunset 2017-12-13 14:16:03 UTC / 2017-12-13 17:16:03 Local
Advertisement - Login to hide

Runways

ID Width Length Bearing (true) Bearing (mag) Surface Threshold Offset Overrun Length
10 148 ft / 45 m 9,993 ft / 3,046 m 104.83° 100.42° Asphalt 0 ft / 0 m 210 ft / 64 m
28 148 ft / 45 m 9,993 ft / 3,046 m 284.84° 280.43° Asphalt 0 ft / 0 m 210 ft / 64 m

Map

Weather


0- 5 10 15 20 25 30 35+ Temperature / ° C

Clouds and Precipitation
Forecast for 2017-12-13 12:00 UTC. Updated an hour ago

Ground ~20,000 ft ~40,000 ft Winds

METAR

OERR 131000Z 00000KT CAVOK 22/01 Q1018 NOSIG

TAF

Not found

Frequencies

Unicom 122.80 MHz CTAF
Warning: Do not use this data for real-world aviation or navigation. No guarantee of current accuracy is given.